Time;durP1;ratioP1;P1;durP2;ratioP2;P2;SDS_P1;SDS_P2;PMS_P1;PMS_P2;Temp;Humidity;BMP_temperature;BMP_pressure;BME280_temperature;BME280_humidity;BME280_pressure;Samples;Min_cycle;Max_cycle;Signal;HPM_P1;HPM_P2
2024/01/30 00:01:17;;;;;;;;;;;2.00;99.90;;;;;;5099605;28;20359;-89
2024/01/30 00:03:42;;;;;;;;;;;2.10;99.90;;;;;;5099931;28;19934;-89
2024/01/30 00:06:08;;;;;;;;;;;2.00;99.90;;;;;;5099846;28;19911;-89
2024/01/30 00:08:34;;;;;;;;;;;2.00;99.90;;;;;;5116924;28;19912;-89
2024/01/30 00:10:59;;;;;;;;;;;1.90;99.90;;;;;;5133201;27;19938;-88
2024/01/30 00:13:25;;;;;;;;;;;1.90;99.90;;;;;;5099066;28;20021;-89
2024/01/30 00:15:50;;;;;;;;;;;1.80;99.90;;;;;;5099327;28;19923;-89
2024/01/30 00:18:16;;;;;;;;;;;1.70;99.90;;;;;;5099841;28;19922;-89
2024/01/30 00:20:42;;;;;;;;;;;1.70;99.90;;;;;;5099653;28;19957;-89
2024/01/30 00:23:08;;;;;;;;;;;1.70;99.90;;;;;;5116049;28;19912;-88
2024/01/30 00:25:34;;;;;;;;;;;1.70;99.90;;;;;;5123966;27;19977;-89
2024/01/30 00:27:59;;;;;;;;;;;1.80;99.90;;;;;;5117960;27;20299;-89
2024/01/30 00:30:25;;;;;;;;;;;1.70;99.90;;;;;;5119338;27;19926;-89
2024/01/30 00:32:50;;;;;;;;;;;1.60;99.90;;;;;;5118786;27;20389;-89
2024/01/30 00:35:16;;;;;;;;;;;1.50;99.90;;;;;;5118697;27;19976;-89
2024/01/30 00:37:41;;;;;;;;;;;1.40;99.90;;;;;;5101909;27;20327;-89
2024/01/30 00:40:07;;;;;;;;;;;1.30;99.90;;;;;;5118531;27;19916;-89
2024/01/30 00:42:33;;;;;;;;;;;1.30;99.90;;;;;;5101881;27;19918;-89
2024/01/30 00:44:58;;;;;;;;;;;1.20;99.90;;;;;;5101205;27;19908;-89
2024/01/30 00:47:24;;;;;;;;;;;1.20;99.90;;;;;;5098635;27;20779;-88
2024/01/30 00:49:50;;;;;;;;;;;1.10;99.90;;;;;;5119334;27;19915;-88
2024/01/30 00:52:15;;;;;;;;;;;1.10;99.90;;;;;;5116601;27;19972;-89
2024/01/30 00:54:41;;;;;;;;;;;1.10;99.90;;;;;;5118297;27;19911;-88
2024/01/30 00:57:07;;;;;;;;;;;1.10;99.90;;;;;;5101233;27;19997;-88
2024/01/30 00:59:32;;;;;;;;;;;1.10;99.90;;;;;;5101319;27;19908;-88
2024/01/30 01:01:58;;;;;;;;;;;1.00;99.90;;;;;;5135264;27;20369;-89
2024/01/30 01:04:26;;;;;;;;;;;0.90;99.90;;;;;;5118211;27;19911;-88
2024/01/30 01:06:52;;;;;;;;;;;1.00;99.90;;;;;;5100827;27;19923;-88
2024/01/30 01:09:18;;;;;;;;;;;1.00;99.90;;;;;;5100862;27;19911;-88
2024/01/30 01:11:43;;;;;;;;;;;0.90;99.90;;;;;;5099987;27;19950;-88
2024/01/30 01:14:09;;;;;;;;;;;0.90;99.90;;;;;;5117616;27;19915;-88
2024/01/30 01:16:34;;;;;;;;;;;0.80;99.90;;;;;;5101082;27;19915;-89
2024/01/30 01:19:00;;;;;;;;;;;0.80;99.90;;;;;;5119095;27;19984;-87
2024/01/30 01:21:26;;;;;;;;;;;0.80;99.90;;;;;;5100647;27;19916;-88
2024/01/30 01:23:51;;;;;;;;;;;0.80;99.90;;;;;;5105057;27;19915;-89
2024/01/30 01:26:17;;;;;;;;;;;0.80;99.90;;;;;;5107621;27;19923;-87
2024/01/30 01:28:42;;;;;;;;;;;0.70;99.90;;;;;;5124854;27;19912;-89
2024/01/30 01:31:08;;;;;;;;;;;0.70;99.90;;;;;;5101541;27;19919;-88
2024/01/30 01:33:35;;;;;;;;;;;0.60;99.90;;;;;;5118465;27;19925;-89
2024/01/30 01:36:04;;;;;;;;;;;0.60;99.90;;;;;;5101367;27;20637;-88
2024/01/30 01:38:29;;;;;;;;;;;0.60;99.90;;;;;;5118327;27;19915;-89
2024/01/30 01:40:55;;;;;;;;;;;0.70;99.90;;;;;;5118621;27;19927;-88
2024/01/30 01:43:21;;;;;;;;;;;0.70;99.90;;;;;;5101107;27;19950;-89
2024/01/30 01:45:47;;;;;;;;;;;0.70;99.90;;;;;;5118638;27;20011;-88
2024/01/30 01:48:12;;;;;;;;;;;0.70;99.90;;;;;;5100929;27;19915;-88
2024/01/30 01:50:38;;;;;;;;;;;0.70;99.90;;;;;;5099728;27;20346;-88
2024/01/30 01:53:06;;;;;;;;;;;0.70;99.90;;;;;;5113858;27;19986;-89
2024/01/30 01:55:32;;;;;;;;;;;0.70;99.90;;;;;;5117178;27;20007;-88
2024/01/30 01:58:08;;;;;;;;;;;0.70;99.90;;;;;;5116705;27;19951;-89
2024/01/30 02:00:35;;;;;;;;;;;0.60;99.90;;;;;;5099583;27;20367;-88
2024/01/30 02:03:00;;;;;;;;;;;0.60;99.90;;;;;;5117138;27;20014;-88
2024/01/30 02:05:26;;;;;;;;;;;0.60;99.90;;;;;;5100522;27;19959;-88
2024/01/30 02:07:52;;;;;;;;;;;0.60;99.90;;;;;;5100661;27;19916;-88
2024/01/30 02:10:17;;;;;;;;;;;0.60;99.90;;;;;;5100419;27;19966;-89
2024/01/30 02:12:43;;;;;;;;;;;0.60;99.90;;;;;;5116692;27;19920;-89
2024/01/30 02:15:15;;;;;;;;;;;0.70;99.90;;;;;;5116770;27;19912;-88
2024/01/30 02:17:40;;;;;;;;;;;0.80;99.90;;;;;;5100545;27;20415;-89
2024/01/30 02:20:06;;;;;;;;;;;0.80;99.90;;;;;;5117803;28;19912;-88
2024/01/30 02:22:34;;;;;;;;;;;0.90;99.90;;;;;;5135609;27;19915;-89
2024/01/30 02:24:59;;;;;;;;;;;0.90;99.90;;;;;;5100588;27;19970;-88
2024/01/30 02:27:25;;;;;;;;;;;1.00;99.90;;;;;;5100442;27;19919;-88
2024/01/30 02:29:51;;;;;;;;;;;1.10;99.90;;;;;;5117725;28;20355;-88
2024/01/30 02:32:16;;;;;;;;;;;1.10;99.90;;;;;;5100186;27;19946;-88
2024/01/30 02:34:42;;;;;;;;;;;1.00;99.90;;;;;;5117209;28;19937;-88
2024/01/30 02:37:08;;;;;;;;;;;0.90;99.90;;;;;;5100137;28;19918;-88
2024/01/30 02:39:33;;;;;;;;;;;0.80;99.90;;;;;;5099860;28;20389;-89
2024/01/30 02:41:59;;;;;;;;;;;0.70;99.90;;;;;;5100594;28;19912;-89
2024/01/30 02:44:25;;;;;;;;;;;0.70;99.90;;;;;;5118197;28;19924;-89
2024/01/30 02:46:51;;;;;;;;;;;0.60;99.90;;;;;;5117488;28;19912;-88
2024/01/30 02:49:16;;;;;;;;;;;0.70;99.90;;;;;;5099804;28;19912;-89
2024/01/30 02:51:42;;;;;;;;;;;0.70;99.90;;;;;;5100987;28;20317;-89
2024/01/30 02:54:07;;;;;;;;;;;0.60;99.90;;;;;;5096754;28;20010;-88
2024/01/30 02:56:33;;;;;;;;;;;0.50;99.90;;;;;;5135983;28;20381;-88
2024/01/30 02:59:17;;;;;;;;;;;0.50;99.90;;;;;;5117871;28;19916;-88
2024/01/30 03:01:46;;;;;;;;;;;0.50;99.90;;;;;;5100495;28;19916;-88
2024/01/30 03:04:12;;;;;;;;;;;0.50;99.90;;;;;;5117444;28;19927;-88
2024/01/30 03:06:38;;;;;;;;;;;0.50;99.90;;;;;;5117351;28;19916;-89
2024/01/30 03:09:04;;;;;;;;;;;0.50;99.90;;;;;;5099982;28;19961;-89
2024/01/30 03:11:30;;;;;;;;;;;0.50;99.90;;;;;;5116311;28;20617;-88
2024/01/30 03:13:56;;;;;;;;;;;0.50;99.90;;;;;;5117218;28;19904;-88
2024/01/30 03:16:21;;;;;;;;;;;0.40;99.90;;;;;;5117115;28;19918;-88
2024/01/30 03:18:48;;;;;;;;;;;0.50;99.90;;;;;;5098921;28;19942;-88
2024/01/30 03:21:13;;;;;;;;;;;0.50;99.90;;;;;;5100103;28;19908;-88
2024/01/30 03:23:39;;;;;;;;;;;0.50;99.90;;;;;;5117037;28;19934;-89
2024/01/30 03:26:06;;;;;;;;;;;0.50;99.90;;;;;;5099295;28;19922;-89
2024/01/30 03:28:32;;;;;;;;;;;0.40;99.90;;;;;;5099539;28;20009;-88
2024/01/30 03:31:04;;;;;;;;;;;0.30;99.90;;;;;;5098852;28;19958;-88
2024/01/30 03:33:29;;;;;;;;;;;0.20;99.90;;;;;;5099207;28;20570;-88
2024/01/30 03:35:55;;;;;;;;;;;0.20;99.90;;;;;;5103336;27;19965;-89
2024/01/30 03:38:20;;;;;;;;;;;0.20;99.90;;;;;;5122195;27;20285;-88
2024/01/30 03:40:46;;;;;;;;;;;0.20;99.90;;;;;;5103921;27;19907;-88
2024/01/30 03:43:11;;;;;;;;;;;0.20;99.90;;;;;;5103805;27;19915;-89
2024/01/30 03:45:37;;;;;;;;;;;0.10;99.90;;;;;;5121143;27;19925;-88
2024/01/30 03:48:03;;;;;;;;;;;0.20;99.90;;;;;;5120904;27;19919;-88
2024/01/30 03:50:28;;;;;;;;;;;0.20;99.90;;;;;;5103556;27;19979;-88
2024/01/30 03:52:54;;;;;;;;;;;0.20;99.90;;;;;;5120959;27;19919;-87
2024/01/30 03:55:19;;;;;;;;;;;0.20;99.90;;;;;;5120356;27;19994;-88
2024/01/30 03:57:45;;;;;;;;;;;0.20;99.90;;;;;;5103218;27;20053;-88
2024/01/30 04:00:11;;;;;;;;;;;0.20;99.90;;;;;;5120989;27;19998;-88
2024/01/30 04:02:39;;;;;;;;;;;0.20;99.90;;;;;;5100107;27;19911;-88
2024/01/30 04:05:05;;;;;;;;;;;0.20;99.90;;;;;;5121159;27;19926;-88
2024/01/30 04:07:30;;;;;;;;;;;0.30;99.90;;;;;;5103319;27;19911;-88
2024/01/30 04:09:56;;;;;;;;;;;0.30;99.90;;;;;;5103301;27;20259;-88
2024/01/30 04:12:22;;;;;;;;;;;0.30;99.90;;;;;;5103565;27;19984;-88
2024/01/30 04:14:47;;;;;;;;;;;0.40;99.90;;;;;;5119974;27;19918;-88
2024/01/30 04:17:13;;;;;;;;;;;0.40;99.90;;;;;;5119698;27;19916;-88
2024/01/30 04:19:39;;;;;;;;;;;0.50;99.90;;;;;;5120878;27;20389;-88
2024/01/30 04:22:04;;;;;;;;;;;0.50;99.90;;;;;;5120651;27;20262;-88
2024/01/30 04:24:30;;;;;;;;;;;0.60;99.90;;;;;;5120321;27;19973;-88
2024/01/30 04:26:55;;;;;;;;;;;0.60;99.90;;;;;;5120383;27;19911;-88
2024/01/30 04:29:22;;;;;;;;;;;0.60;99.90;;;;;;5120518;27;20393;-88
2024/01/30 04:31:48;;;;;;;;;;;0.60;99.90;;;;;;5120706;27;19925;-88
2024/01/30 04:34:13;;;;;;;;;;;0.50;99.90;;;;;;5103071;27;19915;-88
2024/01/30 04:36:39;;;;;;;;;;;0.50;99.90;;;;;;5103129;27;19917;-88
2024/01/30 04:39:04;;;;;;;;;;;0.50;99.90;;;;;;5103474;27;19981;-88
2024/01/30 04:41:31;;;;;;;;;;;0.50;99.90;;;;;;5102634;27;20006;-88
2024/01/30 04:43:57;;;;;;;;;;;0.60;99.90;;;;;;5120370;27;20513;-89
2024/01/30 04:46:23;;;;;;;;;;;0.70;99.90;;;;;;5102179;27;19917;-88
2024/01/30 04:48:48;;;;;;;;;;;0.70;99.90;;;;;;5118623;27;19917;-89
2024/01/30 04:51:14;;;;;;;;;;;0.70;99.90;;;;;;5102163;27;19920;-89
2024/01/30 04:53:40;;;;;;;;;;;0.80;99.90;;;;;;5119794;27;19910;-89
2024/01/30 04:56:05;;;;;;;;;;;0.70;99.90;;;;;;5102998;27;19971;-89
2024/01/30 04:58:31;;;;;;;;;;;0.70;99.90;;;;;;5102163;27;20304;-89
2024/01/30 05:00:57;;;;;;;;;;;0.70;99.90;;;;;;5101902;27;19915;-89
2024/01/30 05:03:23;;;;;;;;;;;0.70;99.90;;;;;;5102792;27;19998;-89
2024/01/30 05:05:49;;;;;;;;;;;0.80;99.90;;;;;;5116779;27;19935;-89
2024/01/30 05:08:14;;;;;;;;;;;0.90;99.90;;;;;;5103049;27;20487;-89
2024/01/30 05:10:40;;;;;;;;;;;0.90;99.90;;;;;;5102306;27;19983;-89
2024/01/30 05:13:06;;;;;;;;;;;0.90;99.90;;;;;;5102457;27;19976;-89
2024/01/30 05:15:31;;;;;;;;;;;1.00;99.90;;;;;;5119409;27;19918;-88
2024/01/30 05:17:57;;;;;;;;;;;1.00;99.90;;;;;;5119554;27;20571;-89
2024/01/30 05:20:22;;;;;;;;;;;1.00;99.90;;;;;;5118694;27;19942;-89
2024/01/30 05:22:48;;;;;;;;;;;1.10;99.90;;;;;;5118218;27;19965;-89
2024/01/30 05:25:14;;;;;;;;;;;1.10;99.90;;;;;;5118847;27;20362;-88
2024/01/30 05:27:39;;;;;;;;;;;1.10;99.90;;;;;;5101906;27;19914;-89
2024/01/30 05:30:08;;;;;;;;;;;1.10;99.90;;;;;;5118940;27;19915;-89
2024/01/30 05:32:34;;;;;;;;;;;1.10;99.90;;;;;;5118420;27;19911;-89
2024/01/30 05:34:59;;;;;;;;;;;1.10;99.90;;;;;;5119038;27;19900;-89
2024/01/30 05:37:25;;;;;;;;;;;1.10;99.90;;;;;;5119373;27;19946;-89
2024/01/30 05:39:50;;;;;;;;;;;1.00;99.90;;;;;;5101714;27;19926;-88
2024/01/30 05:42:16;;;;;;;;;;;1.00;99.90;;;;;;5118130;27;19927;-89
2024/01/30 05:44:42;;;;;;;;;;;1.00;99.90;;;;;;5118385;27;19911;-88
2024/01/30 05:47:08;;;;;;;;;;;1.00;99.90;;;;;;5101823;27;19922;-90
2024/01/30 05:49:34;;;;;;;;;;;1.00;99.90;;;;;;5118980;27;19938;-89
2024/01/30 05:52:02;;;;;;;;;;;1.00;99.90;;;;;;5103507;27;19926;-89
2024/01/30 05:54:27;;;;;;;;;;;1.00;99.90;;;;;;5120799;27;19915;-89
2024/01/30 05:56:53;;;;;;;;;;;0.90;99.90;;;;;;5101360;27;20281;-88
2024/01/30 05:59:18;;;;;;;;;;;0.90;99.90;;;;;;5102010;27;19961;-88
2024/01/30 06:01:48;;;;;;;;;;;0.90;99.90;;;;;;5102244;27;19951;-88
2024/01/30 06:04:14;;;;;;;;;;;0.90;99.90;;;;;;5119190;27;19922;-88
2024/01/30 06:06:39;;;;;;;;;;;0.90;99.90;;;;;;5102274;27;19915;-89
2024/01/30 06:09:05;;;;;;;;;;;0.90;99.90;;;;;;5136676;27;19942;-88
2024/01/30 06:11:31;;;;;;;;;;;0.90;99.90;;;;;;5115122;27;19899;-87
2024/01/30 06:13:56;;;;;;;;;;;0.90;99.90;;;;;;5101657;27;19922;-88
2024/01/30 06:16:22;;;;;;;;;;;0.90;99.90;;;;;;5103188;27;19911;-88
2024/01/30 06:18:48;;;;;;;;;;;0.90;99.90;;;;;;5102560;27;20347;-89
2024/01/30 06:21:13;;;;;;;;;;;1.00;99.90;;;;;;5102751;27;19900;-88
2024/01/30 06:23:39;;;;;;;;;;;1.10;99.90;;;;;;5118101;27;19911;-88
2024/01/30 06:26:06;;;;;;;;;;;1.20;99.90;;;;;;5118283;27;20325;-89
2024/01/30 06:28:31;;;;;;;;;;;1.20;99.90;;;;;;5101676;27;19937;-89
2024/01/30 06:30:57;;;;;;;;;;;1.20;99.90;;;;;;5119060;28;20460;-89
2024/01/30 06:33:22;;;;;;;;;;;1.20;99.90;;;;;;5101728;27;20424;-89
2024/01/30 06:35:48;;;;;;;;;;;1.20;99.90;;;;;;5102249;28;19930;-89
2024/01/30 06:38:15;;;;;;;;;;;1.20;99.90;;;;;;5101711;28;19969;-89
2024/01/30 06:40:41;;;;;;;;;;;1.10;99.90;;;;;;5103843;28;19954;-89
2024/01/30 06:43:07;;;;;;;;;;;1.10;99.90;;;;;;5103154;28;20005;-89
2024/01/30 06:45:34;;;;;;;;;;;1.10;99.90;;;;;;5103090;28;19916;-89
2024/01/30 06:48:00;;;;;;;;;;;1.10;99.90;;;;;;5118732;28;19911;-90
2024/01/30 06:50:26;;;;;;;;;;;1.10;99.90;;;;;;5118762;28;19925;-89
2024/01/30 06:52:51;;;;;;;;;;;1.10;99.90;;;;;;5118668;28;19915;-89
2024/01/30 06:55:18;;;;;;;;;;;1.10;99.90;;;;;;5101390;28;19919;-89
2024/01/30 06:57:43;;;;;;;;;;;1.00;99.90;;;;;;5103475;28;20010;-89
2024/01/30 07:00:09;;;;;;;;;;;1.10;99.90;;;;;;5118165;28;20405;-89
2024/01/30 07:02:44;;;;;;;;;;;1.00;99.90;;;;;;5117865;28;19933;-89
2024/01/30 07:05:10;;;;;;;;;;;1.10;99.90;;;;;;5117644;28;19921;-88
2024/01/30 07:07:35;;;;;;;;;;;1.00;99.90;;;;;;5117615;28;19978;-88
2024/01/30 07:10:01;;;;;;;;;;;1.00;99.90;;;;;;5102378;27;19938;-88
2024/01/30 07:12:27;;;;;;;;;;;1.00;99.90;;;;;;5121981;27;19919;-88
2024/01/30 07:14:52;;;;;;;;;;;1.00;99.90;;;;;;5104404;27;19911;-88
2024/01/30 07:17:18;;;;;;;;;;;1.00;99.90;;;;;;5104790;27;19918;-88
2024/01/30 07:19:43;;;;;;;;;;;1.00;99.90;;;;;;5104830;27;19912;-89
2024/01/30 07:22:12;;;;;;;;;;;1.00;99.90;;;;;;5122206;27;19911;-88
2024/01/30 07:24:42;;;;;;;;;;;1.10;99.90;;;;;;5121148;27;20014;-88
2024/01/30 07:27:07;;;;;;;;;;;1.20;99.90;;;;;;5104920;27;19912;-88
2024/01/30 07:29:33;;;;;;;;;;;1.20;99.90;;;;;;5104963;27;19908;-88
2024/01/30 07:31:59;;;;;;;;;;;1.30;99.90;;;;;;5103736;27;19916;-89
2024/01/30 07:34:24;;;;;;;;;;;1.40;99.90;;;;;;5104075;27;20097;-88
2024/01/30 07:36:50;;;;;;;;;;;1.50;99.90;;;;;;5103542;27;19922;-88
2024/01/30 07:39:16;;;;;;;;;;;1.60;99.90;;;;;;5103760;27;20284;-88
2024/01/30 07:41:41;;;;;;;;;;;1.70;99.90;;;;;;5104018;27;19918;-88
2024/01/30 07:44:20;;;;;;;;;;;;;;;;;;;;;
2024/01/30 07:46:57;;;;;;;;;;;1.80;99.90;;;;;;5121522;27;19919;-88
2024/01/30 07:49:22;;;;;;;;;;;2.00;99.90;;;;;;5104336;27;19911;-88
2024/01/30 07:51:48;;;;;;;;;;;2.00;99.90;;;;;;5120012;27;20263;-88
2024/01/30 07:54:13;;;;;;;;;;;2.10;99.90;;;;;;5104798;27;19919;-88
2024/01/30 07:56:39;;;;;;;;;;;2.20;99.90;;;;;;5120844;27;19916;-88
2024/01/30 07:59:05;;;;;;;;;;;2.20;99.90;;;;;;5103602;27;19915;-88
2024/01/30 08:01:30;;;;;;;;;;;2.30;99.90;;;;;;5104345;27;19916;-88
2024/01/30 08:03:56;;;;;;;;;;;2.40;99.90;;;;;;5138609;27;20291;-88
2024/01/30 08:06:21;;;;;;;;;;;2.50;99.90;;;;;;5120773;27;19899;-88
2024/01/30 08:08:47;;;;;;;;;;;2.60;99.90;;;;;;5121267;27;20298;-88
2024/01/30 08:11:13;;;;;;;;;;;2.70;99.90;;;;;;5103860;27;19912;-89
2024/01/30 08:13:39;;;;;;;;;;;2.80;99.90;;;;;;5121076;27;20359;-88
2024/01/30 08:16:04;;;;;;;;;;;2.90;99.90;;;;;;5104241;27;19915;-89
2024/01/30 08:18:30;;;;;;;;;;;3.00;99.90;;;;;;5103801;27;19953;-88
2024/01/30 08:20:56;;;;;;;;;;;3.10;99.90;;;;;;5102360;27;20325;-89
2024/01/30 08:23:21;;;;;;;;;;;3.20;99.90;;;;;;5120641;27;20417;-89
2024/01/30 08:25:47;;;;;;;;;;;3.30;99.90;;;;;;5103676;27;19919;-89
2024/01/30 08:28:13;;;;;;;;;;;3.50;99.90;;;;;;5120458;27;19935;-89
2024/01/30 08:30:39;;;;;;;;;;;3.60;99.90;;;;;;5104371;27;19916;-88
2024/01/30 08:33:05;;;;;;;;;;;3.80;99.90;;;;;;5120682;27;19927;-88
2024/01/30 08:35:33;;;;;;;;;;;3.90;99.90;;;;;;5103333;27;19958;-89
2024/01/30 08:37:59;;;;;;;;;;;4.10;99.90;;;;;;5139479;27;19919;-89
2024/01/30 08:40:25;;;;;;;;;;;4.20;99.90;;;;;;5103721;27;19911;-89
2024/01/30 08:42:50;;;;;;;;;;;4.30;99.90;;;;;;5121323;27;19915;-89
2024/01/30 08:45:16;;;;;;;;;;;4.50;99.90;;;;;;5104229;27;19945;-88
2024/01/30 08:47:42;;;;;;;;;;;4.60;99.90;;;;;;5103293;27;19937;-89
2024/01/30 08:50:08;;;;;;;;;;;4.70;99.90;;;;;;5117969;27;19947;-89
2024/01/30 08:52:34;;;;;;;;;;;4.90;99.90;;;;;;5120009;27;19919;-89
2024/01/30 08:55:00;;;;;;;;;;;5.00;99.90;;;;;;5102972;27;20014;-90
2024/01/30 08:57:28;;;;;;;;;;;5.10;99.90;;;;;;5119510;27;19916;-89
2024/01/30 08:59:54;;;;;;;;;;;5.20;99.90;;;;;;5103176;27;19911;-88
2024/01/30 09:02:19;;;;;;;;;;;5.30;99.90;;;;;;5105055;27;20294;-90
2024/01/30 09:04:45;;;;;;;;;;;5.40;99.90;;;;;;5119957;27;20729;-89
2024/01/30 09:07:13;;;;;;;;;;;5.50;99.90;;;;;;5103069;27;19916;-89
2024/01/30 09:09:41;;;;;;;;;;;5.50;99.90;;;;;;5103257;27;19918;-89
2024/01/30 09:12:09;;;;;;;;;;;5.60;99.90;;;;;;5103002;27;19996;-89
2024/01/30 09:14:35;;;;;;;;;;;5.70;99.90;;;;;;5119602;27;19930;-89
2024/01/30 09:17:02;;;;;;;;;;;5.80;99.90;;;;;;5103761;27;20393;-89
2024/01/30 09:19:28;;;;;;;;;;;6.00;99.90;;;;;;5120633;27;19900;-89
2024/01/30 09:21:54;;;;;;;;;;;6.20;99.90;;;;;;5119961;27;19918;-89
2024/01/30 09:24:19;;;;;;;;;;;6.30;99.90;;;;;;5102658;27;19912;-89
2024/01/30 09:26:45;;;;;;;;;;;6.30;99.90;;;;;;5102220;27;19987;-90
2024/01/30 09:29:11;;;;;;;;;;;6.50;99.90;;;;;;5101827;27;19928;-89
2024/01/30 09:31:36;;;;;;;;;;;6.60;99.90;;;;;;5101774;27;19919;-89
2024/01/30 09:34:02;;;;;;;;;;;6.70;99.90;;;;;;5101609;27;20370;-89
2024/01/30 09:36:27;;;;;;;;;;;6.90;99.90;;;;;;5101659;27;20270;-89
2024/01/30 09:38:53;;;;;;;;;;;6.90;99.90;;;;;;5138202;27;20013;-91
2024/01/30 09:41:40;;;;;;;;;;;7.10;99.90;;;;;;5102352;27;19915;-90
2024/01/30 09:44:07;;;;;;;;;;;7.30;99.90;;;;;;5136970;27;19960;-88
2024/01/30 09:46:34;;;;;;;;;;;7.40;99.90;;;;;;5102798;27;19962;-89
2024/01/30 09:49:00;;;;;;;;;;;7.50;99.90;;;;;;5102810;27;19911;-90
2024/01/30 09:51:26;;;;;;;;;;;7.50;99.90;;;;;;5102463;27;19919;-90
2024/01/30 09:53:53;;;;;;;;;;;7.40;99.90;;;;;;5118748;27;19926;-89
2024/01/30 09:56:19;;;;;;;;;;;7.30;99.90;;;;;;5119606;27;19918;-90
2024/01/30 09:58:45;;;;;;;;;;;7.30;99.90;;;;;;5102583;27;19912;-89
2024/01/30 10:01:10;;;;;;;;;;;7.30;99.90;;;;;;5102451;27;19911;-89
2024/01/30 10:03:36;;;;;;;;;;;7.30;99.90;;;;;;5118323;27;19923;-89
2024/01/30 10:06:02;;;;;;;;;;;7.30;99.90;;;;;;5136393;27;19965;-89
2024/01/30 10:08:43;;;;;;;;;;;7.30;99.90;;;;;;5102490;27;19920;-89
2024/01/30 10:11:08;;;;;;;;;;;7.40;99.90;;;;;;5118857;27;19912;-89
2024/01/30 10:13:34;;;;;;;;;;;7.50;99.90;;;;;;5102780;27;19925;-89
2024/01/30 10:16:02;;;;;;;;;;;7.60;99.90;;;;;;5102224;27;19907;-89
2024/01/30 10:18:27;;;;;;;;;;;7.80;99.90;;;;;;5102491;27;20000;-90
2024/01/30 10:20:53;;;;;;;;;;;7.80;99.90;;;;;;5118326;27;19923;-89
2024/01/30 10:23:19;;;;;;;;;;;8.00;99.90;;;;;;5101148;27;20416;-89
2024/01/30 10:25:45;;;;;;;;;;;8.10;99.90;;;;;;5102694;28;20615;-89
2024/01/30 10:28:11;;;;;;;;;;;8.10;99.90;;;;;;5117756;27;19911;-89
2024/01/30 10:30:36;;;;;;;;;;;8.10;99.90;;;;;;5100361;27;19966;-89
2024/01/30 10:33:02;;;;;;;;;;;8.10;99.90;;;;;;5101221;27;19931;-89
2024/01/30 10:35:28;;;;;;;;;;;8.10;99.90;;;;;;5118867;28;20355;-89
2024/01/30 10:41:26;;;;;;;;;;;8.20;99.90;;;;;;5137842;28;19918;-89
2024/01/30 10:43:58;;;;;;;;;;;8.00;99.90;;;;;;5102364;28;20320;-89
2024/01/30 10:46:28;;;;;;;;;;;8.00;99.90;;;;;;5106155;27;19915;-88
2024/01/30 10:48:57;;;;;;;;;;;8.00;99.90;;;;;;5106367;27;19923;-88
2024/01/30 10:51:23;;;;;;;;;;;8.00;99.90;;;;;;5105609;27;20358;-87
2024/01/30 10:53:49;;;;;;;;;;;8.00;99.90;;;;;;5121272;27;19919;-87
2024/01/30 10:56:16;;;;;;;;;;;7.90;99.90;;;;;;5122803;27;19972;-88
2024/01/30 10:58:41;;;;;;;;;;;7.90;99.90;;;;;;5104973;27;19919;-88
2024/01/30 11:01:07;;;;;;;;;;;7.80;99.90;;;;;;5104604;27;19996;-88
2024/01/30 11:03:36;;;;;;;;;;;7.80;99.90;;;;;;5104633;27;19912;-88
2024/01/30 11:06:02;;;;;;;;;;;7.80;99.90;;;;;;5121713;27;20512;-89
2024/01/30 11:08:30;;;;;;;;;;;7.80;99.90;;;;;;5121449;27;20484;-88
2024/01/30 11:10:58;;;;;;;;;;;7.80;99.90;;;;;;5104496;27;19919;-88
2024/01/30 11:13:28;;;;;;;;;;;7.80;99.90;;;;;;5104880;27;19950;-89
2024/01/30 11:15:54;;;;;;;;;;;7.90;99.90;;;;;;5122266;27;19949;-87
2024/01/30 11:18:24;;;;;;;;;;;8.00;99.90;;;;;;5104939;27;19912;-88
2024/01/30 11:20:49;;;;;;;;;;;8.00;99.90;;;;;;5104303;27;20599;-88
2024/01/30 11:23:15;;;;;;;;;;;7.90;99.90;;;;;;5103881;27;20002;-87
2024/01/30 11:25:43;;;;;;;;;;;8.10;99.90;;;;;;5104400;27;20335;-88
2024/01/30 11:28:13;;;;;;;;;;;8.10;99.90;;;;;;5106812;27;20594;-88
2024/01/30 11:30:39;;;;;;;;;;;8.20;99.90;;;;;;5104243;27;19911;-88
2024/01/30 11:33:05;;;;;;;;;;;8.20;99.90;;;;;;5104371;27;19965;-89
2024/01/30 11:35:35;;;;;;;;;;;8.10;99.90;;;;;;5103769;27;19912;-87
2024/01/30 11:38:01;;;;;;;;;;;8.10;99.90;;;;;;5139331;27;19922;-89
2024/01/30 11:40:28;;;;;;;;;;;8.10;99.90;;;;;;5104009;27;19919;-89
2024/01/30 11:42:54;;;;;;;;;;;8.20;99.90;;;;;;5104457;27;19907;-88
2024/01/30 11:45:20;;;;;;;;;;;8.10;99.90;;;;;;5120427;27;19911;-89
2024/01/30 11:47:45;;;;;;;;;;;8.10;99.90;;;;;;5104274;27;19962;-89
2024/01/30 11:50:11;;;;;;;;;;;8.10;99.90;;;;;;5120593;27;19930;-89
2024/01/30 11:52:37;;;;;;;;;;;8.10;99.90;;;;;;5103999;27;20346;-89
2024/01/30 11:55:02;;;;;;;;;;;8.10;99.90;;;;;;5120198;27;19939;-89
2024/01/30 11:57:29;;;;;;;;;;;8.10;99.90;;;;;;5120951;27;20386;-89
2024/01/30 11:59:55;;;;;;;;;;;8.10;99.90;;;;;;5120413;27;19928;-89
2024/01/30 12:02:20;;;;;;;;;;;8.20;99.90;;;;;;5138846;27;19915;-90
2024/01/30 12:04:46;;;;;;;;;;;8.20;99.90;;;;;;5103855;27;20369;-89
2024/01/30 12:07:12;;;;;;;;;;;8.20;99.90;;;;;;5120507;27;19939;-89
2024/01/30 12:09:38;;;;;;;;;;;8.10;99.90;;;;;;5103711;27;19922;-89
2024/01/30 12:12:05;;;;;;;;;;;8.10;99.90;;;;;;5103904;27;19911;-89
2024/01/30 12:14:31;;;;;;;;;;;8.20;99.90;;;;;;5138697;27;19922;-89
2024/01/30 12:16:57;;;;;;;;;;;8.20;99.90;;;;;;5120653;27;19915;-89
2024/01/30 12:19:23;;;;;;;;;;;8.20;99.90;;;;;;5101628;27;19922;-89
2024/01/30 12:21:53;;;;;;;;;;;8.20;99.90;;;;;;5102405;27;19915;-89
2024/01/30 12:24:19;;;;;;;;;;;8.20;99.90;;;;;;5119914;27;19933;-89
2024/01/30 12:26:44;;;;;;;;;;;8.20;99.90;;;;;;5120307;27;19911;-89
2024/01/30 12:29:10;;;;;;;;;;;8.20;99.90;;;;;;5104233;27;20363;-89
2024/01/30 12:31:36;;;;;;;;;;;8.10;99.90;;;;;;5136756;27;20018;-88
2024/01/30 12:34:02;;;;;;;;;;;8.10;99.90;;;;;;5119742;27;19930;-89
2024/01/30 12:36:28;;;;;;;;;;;8.10;99.90;;;;;;5103000;27;19915;-89
2024/01/30 12:38:54;;;;;;;;;;;8.10;99.90;;;;;;5102120;27;19957;-89
2024/01/30 12:41:20;;;;;;;;;;;8.20;99.90;;;;;;5103453;27;19919;-89
2024/01/30 12:43:47;;;;;;;;;;;8.40;99.90;;;;;;5102534;27;19926;-88
2024/01/30 12:46:13;;;;;;;;;;;8.40;99.90;;;;;;5103021;27;19911;-89
2024/01/30 12:48:38;;;;;;;;;;;8.50;99.90;;;;;;5102981;27;19919;-88
2024/01/30 12:51:04;;;;;;;;;;;8.50;99.90;;;;;;5120363;27;19955;-89
2024/01/30 12:53:30;;;;;;;;;;;8.50;99.90;;;;;;5103381;27;19915;-89
2024/01/30 12:55:55;;;;;;;;;;;8.50;99.90;;;;;;5118949;27;19919;-89
2024/01/30 12:58:21;;;;;;;;;;;8.40;99.90;;;;;;5119120;27;20002;-89
2024/01/30 13:00:47;;;;;;;;;;;8.40;99.90;;;;;;5120119;27;19920;-89
2024/01/30 13:03:13;;;;;;;;;;;8.40;99.90;;;;;;5137575;27;19964;-89
2024/01/30 13:05:38;;;;;;;;;;;8.30;99.90;;;;;;5102458;27;19915;-89
2024/01/30 13:08:04;;;;;;;;;;;8.30;99.90;;;;;;5118757;27;19911;-88
2024/01/30 13:10:30;;;;;;;;;;;8.20;99.90;;;;;;5101806;27;19915;-88
2024/01/30 13:12:55;;;;;;;;;;;8.20;99.90;;;;;;5101994;27;19921;-89
2024/01/30 13:15:22;;;;;;;;;;;8.10;99.90;;;;;;5118289;27;19922;-89
2024/01/30 13:17:48;;;;;;;;;;;8.10;99.90;;;;;;5119373;27;19915;-89
2024/01/30 13:20:19;;;;;;;;;;;8.20;99.90;;;;;;5101959;27;20243;-90
2024/01/30 13:22:45;;;;;;;;;;;8.10;99.90;;;;;;5118445;27;20354;-89
2024/01/30 13:25:11;;;;;;;;;;;8.10;99.90;;;;;;5102755;27;19919;-90
2024/01/30 13:27:37;;;;;;;;;;;8.10;99.90;;;;;;5118688;27;19911;-88
2024/01/30 13:30:03;;;;;;;;;;;8.10;99.90;;;;;;5118920;27;19919;-89
2024/01/30 13:32:29;;;;;;;;;;;8.20;99.90;;;;;;5101585;27;19912;-89
2024/01/30 13:34:54;;;;;;;;;;;8.30;99.90;;;;;;5136242;27;19932;-89
2024/01/30 13:37:22;;;;;;;;;;;8.40;99.90;;;;;;5100827;27;19916;-89
2024/01/30 13:39:47;;;;;;;;;;;8.30;99.90;;;;;;5100841;27;19964;-89
2024/01/30 13:42:13;;;;;;;;;;;8.30;99.90;;;;;;5118432;27;20681;-89
2024/01/30 13:44:39;;;;;;;;;;;8.30;99.90;;;;;;5102379;27;20354;-88
2024/01/30 13:47:04;;;;;;;;;;;8.20;99.90;;;;;;5119549;27;19998;-88
2024/01/30 13:49:30;;;;;;;;;;;8.30;99.90;;;;;;5102325;27;19915;-89
2024/01/30 13:51:55;;;;;;;;;;;8.20;99.90;;;;;;5106211;27;19916;-88
2024/01/30 13:54:21;;;;;;;;;;;8.20;99.90;;;;;;5118445;27;19926;-89
2024/01/30 13:56:47;;;;;;;;;;;8.10;99.90;;;;;;5117929;27;19960;-89
2024/01/30 13:59:14;;;;;;;;;;;8.10;99.90;;;;;;5118307;27;20209;-87
2024/01/30 14:01:39;;;;;;;;;;;8.10;99.90;;;;;;5101026;27;19985;-89
2024/01/30 14:04:05;;;;;;;;;;;8.10;99.90;;;;;;5118875;27;20018;-88
2024/01/30 14:06:31;;;;;;;;;;;8.10;99.90;;;;;;5137452;27;19915;-89
2024/01/30 14:08:58;;;;;;;;;;;8.10;99.90;;;;;;5119019;27;20722;-89
2024/01/30 14:11:24;;;;;;;;;;;8.10;99.90;;;;;;5118718;27;19922;-89
2024/01/30 14:13:50;;;;;;;;;;;8.00;99.90;;;;;;5101709;27;20389;-89
2024/01/30 14:16:22;;;;;;;;;;;8.10;99.90;;;;;;5101600;27;19969;-88
2024/01/30 14:18:48;;;;;;;;;;;8.00;99.90;;;;;;5118899;27;20571;-89
2024/01/30 14:21:13;;;;;;;;;;;8.00;99.90;;;;;;5101778;27;19942;-89
2024/01/30 14:23:39;;;;;;;;;;;7.90;99.90;;;;;;5118531;27;19942;-88
2024/01/30 14:26:30;;;;;;;;;;;7.80;99.90;;;;;;5118071;27;19915;-89
2024/01/30 14:28:55;;;;;;;;;;;7.70;99.90;;;;;;5134977;27;20011;-88